createdAt,value
2018-04-28T12:11:13.913Z,3.30
2018-04-28T12:13:42.158Z,3.20
2018-04-28T12:16:11.136Z,3.20
2018-04-28T12:18:39.377Z,3.40
2018-04-28T12:21:07.643Z,3.90
2018-04-28T12:23:36.642Z,3.97
2018-04-28T12:26:04.915Z,3.67
2018-04-28T12:28:33.141Z,3.30
2018-04-28T12:31:02.143Z,2.80
2018-04-28T12:33:31.130Z,3.67
2018-04-28T12:36:00.164Z,2.70
2018-04-28T12:38:28.351Z,2.77
2018-04-28T12:40:57.416Z,2.40
2018-04-28T12:43:26.399Z,2.40
2018-04-28T12:45:54.626Z,3.23
2018-04-28T12:48:22.869Z,8.93
2018-04-28T12:50:51.158Z,3.10
2018-04-28T12:53:19.311Z,3.60
2018-04-28T12:55:47.561Z,3.90
2018-04-28T12:58:16.665Z,3.67
2018-04-28T13:00:44.956Z,2.57
2018-04-28T13:03:13.265Z,3.17
2018-04-28T13:05:41.478Z,3.37
2018-04-28T13:08:09.729Z,2.77
2018-04-28T13:10:37.977Z,4.63
2018-04-28T13:13:06.239Z,3.10
2018-04-28T13:15:34.454Z,2.87
2018-04-28T13:18:02.713Z,2.33
2018-04-28T13:20:30.941Z,2.60
2018-04-28T13:22:59.188Z,2.53
2018-04-28T13:25:27.440Z,2.00
2018-04-28T13:27:55.692Z,2.20
2018-04-28T13:30:23.944Z,2.40
2018-04-28T13:32:52.200Z,2.77
2018-04-28T13:35:20.442Z,2.77
2018-04-28T13:37:49.034Z,2.23
2018-04-28T13:40:17.250Z,2.50
2018-04-28T13:42:45.473Z,2.27
2018-04-28T13:45:13.802Z,2.30
2018-04-28T13:47:42.051Z,2.23
2018-04-28T13:50:10.964Z,2.13
2018-04-28T13:52:39.217Z,2.13
2018-04-28T13:55:07.435Z,2.10
2018-04-28T13:57:35.679Z,2.60
2018-04-28T14:00:03.912Z,2.60
2018-04-28T14:02:32.172Z,2.17
2018-04-28T14:05:00.411Z,2.20
2018-04-28T14:07:29.296Z,1.90
2018-04-28T14:09:57.529Z,2.87
2018-04-28T14:12:25.744Z,2.20
2018-04-28T14:14:55.011Z,2.10
2018-04-28T14:17:23.309Z,1.70
2018-04-28T14:19:51.554Z,1.80
2018-04-28T14:22:19.799Z,1.90
2018-04-28T14:24:48.057Z,1.70
2018-04-28T14:27:16.308Z,1.70
2018-04-28T14:29:44.586Z,2.00
2018-04-28T14:32:12.841Z,1.70
2018-04-28T14:34:41.091Z,1.73
2018-04-28T14:37:09.359Z,3.50
2018-04-28T14:39:37.612Z,2.00
2018-04-28T14:42:05.873Z,1.90
2018-04-28T14:44:34.106Z,1.93
2018-04-28T14:47:02.359Z,2.10
2018-04-28T14:49:30.572Z,1.60
2018-04-28T14:51:58.833Z,3.47
2018-04-28T14:54:27.075Z,2.30
2018-04-28T14:56:55.340Z,2.40
2018-04-28T14:59:23.604Z,2.00
2018-04-28T15:01:51.815Z,2.33
2018-04-28T15:04:20.054Z,2.50
2018-04-28T15:06:48.296Z,4.47
2018-04-28T15:09:16.512Z,4.00
2018-04-28T15:11:44.745Z,5.10
2018-04-28T15:14:12.980Z,1.97
2018-04-28T15:16:41.218Z,1.70
2018-04-28T15:19:09.496Z,3.27
2018-04-28T15:21:37.737Z,2.50
2018-04-28T15:24:06.759Z,2.50
2018-04-28T15:26:35.001Z,1.80
2018-04-28T15:29:03.307Z,2.33
2018-04-28T15:31:31.526Z,2.10
2018-04-28T15:33:59.763Z,1.93
2018-04-28T15:36:28.004Z,2.17
2018-04-28T15:38:56.295Z,2.13
2018-04-28T15:41:25.283Z,1.97
2018-04-28T15:43:53.547Z,2.80
2018-04-28T15:46:22.568Z,2.43
2018-04-28T15:48:51.588Z,2.47
2018-04-28T15:51:19.822Z,2.30
2018-04-28T15:53:48.154Z,2.53
2018-04-28T15:56:16.408Z,3.47
2018-04-28T15:58:44.717Z,3.50
2018-04-28T16:01:12.943Z,10.33
2018-04-28T16:03:41.968Z,5.80
2018-04-28T16:06:10.300Z,2.80
2018-04-28T16:08:38.616Z,7.60
2018-04-28T16:11:06.827Z,3.13
2018-04-28T16:13:35.078Z,2.50
2018-04-28T16:16:03.321Z,2.53
2018-04-28T16:18:31.558Z,2.53
2018-04-28T16:20:59.826Z,2.27
2018-04-28T16:23:28.046Z,2.10
2018-04-28T16:25:57.046Z,2.40
2018-04-28T16:28:25.297Z,2.23
2018-04-28T16:30:53.551Z,3.00
2018-04-28T16:33:21.793Z,2.00
2018-04-28T16:35:50.029Z,2.50
2018-04-28T16:38:19.104Z,2.40
2018-04-28T16:40:47.372Z,3.40
2018-04-28T16:43:16.242Z,2.20
2018-04-28T16:45:44.514Z,2.10
2018-04-28T16:48:12.729Z,2.10
2018-04-28T16:50:41.045Z,2.40
2018-04-28T16:53:09.203Z,1.60
2018-04-28T16:55:38.240Z,1.80
2018-04-28T16:58:06.455Z,2.10
2018-04-28T17:00:34.676Z,2.17
2018-04-28T17:03:02.910Z,2.13
2018-04-28T17:05:31.236Z,2.23
2018-04-28T17:07:59.526Z,2.10
2018-04-28T17:10:27.764Z,2.30
2018-04-28T17:12:56.039Z,2.23
2018-04-28T17:15:24.336Z,2.10
2018-04-28T17:17:53.963Z,2.10
2018-04-28T17:20:22.212Z,2.50
2018-04-28T17:22:50.448Z,2.30
2018-04-28T17:25:18.690Z,2.50
2018-04-28T17:27:46.924Z,2.67
2018-04-28T17:30:15.942Z,6.20
2018-04-28T17:32:44.209Z,3.40
2018-04-28T17:35:13.253Z,3.10
2018-04-28T17:37:41.487Z,2.33
2018-04-28T17:40:09.829Z,2.90
2018-04-28T17:42:38.005Z,2.53
2018-04-28T17:45:06.265Z,3.40
2018-04-28T17:47:34.512Z,2.23
2018-04-28T17:50:02.776Z,2.30
2018-04-28T17:52:30.978Z,2.47
2018-04-28T17:54:59.250Z,2.43
2018-04-28T17:57:27.465Z,2.20
2018-04-28T17:59:55.715Z,2.47
2018-04-28T18:02:23.959Z,2.33
2018-04-28T18:04:52.204Z,2.20
2018-04-28T18:07:20.519Z,1.93
2018-04-28T18:09:48.683Z,2.37
2018-04-28T18:12:16.958Z,2.33
2018-04-28T18:14:45.206Z,2.53
2018-04-28T18:17:14.236Z,2.73
2018-04-28T18:19:42.517Z,2.60
2018-04-28T18:22:10.784Z,2.10
2018-04-28T18:24:39.147Z,2.53
2018-04-28T18:27:07.542Z,2.80
2018-04-28T18:29:35.802Z,3.00
2018-04-28T18:32:04.779Z,2.70
2018-04-28T18:34:33.770Z,3.00
2018-04-28T18:37:02.081Z,3.10
2018-04-28T18:39:31.062Z,2.57
2018-04-28T18:41:59.348Z,3.43
2018-04-28T18:44:27.595Z,3.43
2018-04-28T18:46:55.840Z,5.17
2018-04-28T18:49:24.137Z,4.63
2018-04-28T18:51:52.437Z,5.30
2018-04-28T18:54:20.612Z,5.00
2018-04-28T18:56:49.648Z,5.50
2018-04-28T18:59:17.898Z,5.20
2018-04-28T19:01:46.152Z,5.33
2018-04-28T19:04:15.148Z,3.87
2018-04-28T19:06:43.429Z,4.03
2018-04-28T19:09:12.447Z,3.53
2018-04-28T19:11:40.773Z,3.67
2018-04-28T19:14:09.096Z,4.03
2018-04-28T19:16:37.321Z,3.93
2018-04-28T19:19:05.562Z,4.30
2018-04-28T19:21:33.780Z,3.93
2018-04-28T19:24:02.019Z,3.50
2018-04-28T19:26:30.243Z,3.47
2018-04-28T19:28:58.491Z,4.17
2018-04-28T19:31:26.720Z,4.13
2018-04-28T19:33:54.979Z,3.70
2018-04-28T19:36:23.983Z,4.30
2018-04-28T19:38:52.200Z,3.57
2018-04-28T19:41:20.559Z,3.77
2018-04-28T19:43:48.824Z,4.57
2018-04-28T19:46:17.088Z,4.20
2018-04-28T19:48:45.399Z,16.80
2018-04-28T19:51:13.664Z,10.50
2018-04-28T19:53:41.952Z,7.50
2018-04-28T19:56:10.180Z,7.90
2018-04-28T19:58:38.428Z,7.87
2018-04-28T20:01:06.647Z,5.53
2018-04-28T20:03:34.942Z,11.17
2018-04-28T20:06:03.180Z,5.90
2018-04-28T20:08:31.497Z,6.50
2018-04-28T20:10:59.722Z,6.63
2018-04-28T20:13:27.952Z,5.07
2018-04-28T20:15:56.195Z,5.20
2018-04-28T20:18:25.184Z,4.43
2018-04-28T20:20:54.241Z,4.27
2018-04-28T20:23:34.184Z,4.17
2018-04-28T20:26:02.587Z,4.70
2018-04-28T20:28:30.818Z,5.50
2018-04-28T20:30:59.068Z,4.67
2018-04-28T20:33:27.325Z,5.03
2018-04-28T20:35:55.566Z,4.60
2018-04-28T20:38:24.716Z,3.70
2018-04-28T20:40:53.754Z,5.37
2018-04-28T20:43:21.991Z,3.77
2018-04-28T20:45:50.257Z,3.67
2018-04-28T20:48:18.517Z,3.90
2018-04-28T20:50:46.730Z,3.70
2018-04-28T20:53:15.025Z,4.40
2018-04-28T20:55:43.272Z,4.37
2018-04-28T20:58:12.332Z,5.63
2018-04-28T21:00:40.573Z,5.30
2018-04-28T21:03:08.844Z,5.80
2018-04-28T21:05:37.098Z,4.73
2018-04-28T21:08:06.094Z,8.40
2018-04-28T21:10:35.100Z,7.47
2018-04-28T21:13:03.418Z,4.67
2018-04-28T21:15:31.627Z,6.80
2018-04-28T21:18:00.646Z,6.30
2018-04-28T21:20:28.915Z,7.83
2018-04-28T21:22:57.206Z,5.33
2018-04-28T21:25:25.407Z,5.60
2018-04-28T21:27:53.663Z,10.93
2018-04-28T21:30:21.927Z,5.17
2018-04-28T21:32:50.195Z,5.60
2018-04-28T21:35:19.197Z,12.60
2018-04-28T21:37:47.462Z,7.40
2018-04-28T21:40:15.675Z,7.90
2018-04-28T21:42:43.928Z,7.63
2018-04-28T21:45:12.374Z,7.40
2018-04-28T21:47:40.984Z,6.17
2018-04-28T21:50:09.264Z,10.43
2018-04-28T21:52:37.512Z,9.83
2018-04-28T21:55:05.744Z,4.83
2018-04-28T21:57:34.959Z,4.43
2018-04-28T22:00:03.195Z,6.20
2018-04-28T22:02:32.208Z,4.90
2018-04-28T22:05:00.432Z,4.77
2018-04-28T22:07:28.666Z,4.20
2018-04-28T22:09:56.900Z,4.70
2018-04-28T22:12:25.926Z,5.50
2018-04-28T22:14:54.148Z,4.93
2018-04-28T22:17:22.375Z,4.70
2018-04-28T22:19:50.617Z,4.47
2018-04-28T22:22:19.619Z,4.70
2018-04-28T22:24:48.631Z,5.20
2018-04-28T22:27:16.861Z,5.67
2018-04-28T22:29:45.203Z,5.80
2018-04-28T22:32:13.486Z,5.43
2018-04-28T22:34:41.737Z,5.47
2018-04-28T22:37:09.996Z,5.13
2018-04-28T22:39:39.029Z,5.10
2018-04-28T22:42:07.274Z,5.27
2018-04-28T22:44:35.528Z,5.33
2018-04-28T22:47:03.777Z,5.30
2018-04-28T22:49:32.002Z,5.70
2018-04-28T22:52:00.257Z,6.23
2018-04-28T22:54:28.547Z,5.37
2018-04-28T22:56:57.607Z,5.93
2018-04-28T22:59:25.816Z,5.77
2018-04-28T23:01:54.817Z,6.00
2018-04-28T23:04:23.044Z,6.40
2018-04-28T23:06:51.374Z,6.00
2018-04-28T23:09:19.569Z,5.87
2018-04-28T23:11:47.918Z,6.50
2018-04-28T23:14:16.144Z,6.43
2018-04-28T23:16:44.401Z,7.20
2018-04-28T23:19:12.620Z,7.10
2018-04-28T23:21:40.865Z,7.10
2018-04-28T23:24:09.106Z,6.80
2018-04-28T23:26:37.334Z,6.60
2018-04-28T23:29:05.571Z,6.43
2018-04-28T23:31:33.791Z,6.90
2018-04-28T23:34:02.035Z,6.70
2018-04-28T23:36:30.295Z,6.73
2018-04-28T23:38:58.562Z,6.93
2018-04-28T23:41:26.783Z,7.57
2018-04-28T23:43:55.077Z,7.33
2018-04-28T23:46:23.304Z,7.43
2018-04-28T23:48:51.549Z,6.97
2018-04-28T23:51:20.592Z,7.17
2018-04-28T23:53:48.809Z,8.10
2018-04-28T23:56:17.099Z,8.10
2018-04-28T23:58:45.329Z,7.43
